Time;durP1;ratioP1;P1;durP2;ratioP2;P2;SDS_P1;SDS_P2;PMS_P1;PMS_P2;Temp;Humidity;BMP_temperature;BMP_pressure;BME280_temperature;BME280_humidity;BME280_pressure;Samples;Min_cycle;Max_cycle;Signal;HPM_P1;HPM_P2
2023/07/08 00:02:43;;;;;;;3.65;1.60;;;19.40;78.20;;;18.37;63.84;100662.84;12317626;23;96927;-88
2023/07/08 00:07:47;;;;;;;3.47;1.67;;;19.40;78.10;;;18.33;64.19;100653.50;12319033;23;96610;-88
2023/07/08 00:12:55;;;;;;;3.78;1.90;;;19.40;78.20;;;18.32;64.12;100657.25;12342188;23;96463;-88
2023/07/08 00:18:00;;;;;;;5.80;2.10;;;19.30;78.30;;;18.28;63.15;100660.56;12341801;23;96525;-87
2023/07/08 00:23:05;;;;;;;6.10;1.90;;;19.30;78.00;;;18.26;63.37;100657.25;12343834;23;96479;-87
2023/07/08 00:28:27;;;;;;;2.70;1.63;;;19.30;77.80;;;18.28;63.38;100661.38;12344769;23;96620;-87
2023/07/08 00:33:30;;;;;;;4.68;2.03;;;19.30;78.00;;;18.28;63.23;100655.16;12343986;23;96455;-87
2023/07/08 00:38:34;;;;;;;2.30;1.45;;;19.30;77.70;;;18.25;63.18;100647.53;12320684;23;96536;-88
2023/07/08 00:43:57;;;;;;;3.92;1.73;;;19.20;77.60;;;18.19;62.50;100646.50;12343479;23;96480;-87
2023/07/08 00:49:07;;;;;;;3.17;2.00;;;19.20;77.50;;;18.19;62.90;100651.88;12344166;23;96568;-87
2023/07/08 00:54:17;;;;;;;4.40;1.90;;;19.20;77.60;;;18.13;63.46;100650.84;12368033;23;96464;-88
2023/07/08 00:59:22;;;;;;;;;;;19.20;77.70;;;18.10;64.07;100656.63;12341168;23;97023;-87
2023/07/08 01:04:37;;;;;;;4.80;2.42;;;19.10;78.30;;;17.99;64.58;100648.31;12361358;23;96998;-87
2023/07/08 01:09:45;;;;;;;4.75;2.20;;;19.00;78.40;;;17.90;65.49;100647.72;12344734;23;97620;-87
2023/07/08 01:14:53;;;;;;;5.28;2.40;;;19.00;79.00;;;17.73;65.95;100638.38;12344011;23;96490;-87
2023/07/08 01:19:57;;;;;;;2.97;1.52;;;18.90;79.50;;;17.60;66.01;100644.53;12345171;23;96828;-88
2023/07/08 01:25:03;;;;;;;2.20;1.48;;;18.70;79.60;;;17.48;67.27;100654.19;12344796;23;96835;-88
2023/07/08 01:30:08;;;;;;;2.70;1.63;;;18.60;80.10;;;17.29;67.70;100651.25;12343390;23;96520;-88
2023/07/08 01:35:13;;;;;;;8.30;2.45;;;18.40;80.70;;;17.11;68.25;100659.84;12342261;23;96405;-88
2023/07/08 01:40:29;;;;;;;4.22;1.77;;;18.20;81.20;;;16.83;69.06;100641.09;12343579;23;96471;-88
2023/07/08 01:45:39;;;;;;;3.88;2.10;;;18.00;81.80;;;16.76;69.19;100656.34;12343846;23;96379;-87
2023/07/08 01:51:05;;;;;;;;;;;17.70;82.20;;;16.64;70.59;100655.19;12345152;23;96638;-87
2023/07/08 01:56:12;;;;;;;3.17;1.83;;;17.60;83.60;;;16.48;70.80;100645.59;12367648;23;96556;-88
2023/07/08 02:01:15;;;;;;;3.17;1.90;;;17.50;82.70;;;16.33;70.90;100645.69;12344683;23;97187;-88
2023/07/08 02:06:19;;;;;;;4.07;2.10;;;17.30;83.30;;;16.28;71.32;100653.50;12368164;23;96477;-88
2023/07/08 02:11:24;;;;;;;3.20;1.90;;;17.30;83.80;;;16.17;72.15;100640.59;12344579;23;96611;-88
2023/07/08 02:16:28;;;;;;;3.28;2.15;;;17.30;84.20;;;16.09;72.32;100645.28;12342679;23;96505;-88
2023/07/08 02:21:33;;;;;;;3.03;1.90;;;17.20;84.30;;;16.02;72.90;100653.28;12320776;23;96372;-88
2023/07/08 02:26:37;;;;;;;6.03;2.28;;;17.10;84.70;;;15.90;74.13;100649.44;12342631;23;96582;-88
2023/07/08 02:31:40;;;;;;;3.25;2.08;;;16.90;85.50;;;15.76;74.84;100659.19;12342762;23;98040;-87
2023/07/08 02:36:44;;;;;;;3.30;2.00;;;16.80;86.00;;;15.66;75.16;100654.16;12342600;23;96569;-87
2023/07/08 02:41:48;;;;;;;3.00;1.90;;;16.70;86.50;;;15.57;75.38;100654.41;12342828;23;96511;-87
2023/07/08 02:46:51;;;;;;;4.13;2.03;;;16.60;86.80;;;15.52;75.56;100660.34;12341455;23;96556;-87
2023/07/08 02:51:55;;;;;;;4.57;2.33;;;16.50;87.10;;;15.50;75.70;100667.75;12342956;23;96338;-87
2023/07/08 02:57:00;;;;;;;3.40;2.10;;;16.50;87.40;;;15.48;75.50;100670.63;12342154;23;97069;-87
2023/07/08 03:02:04;;;;;;;3.60;1.95;;;16.50;87.40;;;15.53;75.58;100662.00;12343526;23;96345;-87
2023/07/08 03:07:11;;;;;;;3.55;2.35;;;16.60;87.50;;;15.48;75.63;100661.75;12342208;23;96593;-87
2023/07/08 03:12:15;;;;;;;2.85;1.85;;;16.60;87.70;;;15.60;75.79;100672.81;12342815;23;96464;-87
2023/07/08 03:17:19;;;;;;;3.72;2.08;;;16.70;87.80;;;15.61;75.85;100675.28;12340975;23;96503;-88
2023/07/08 03:22:23;;;;;;;4.57;2.70;;;16.70;87.80;;;15.62;75.63;100674.28;12342082;23;96409;-87
2023/07/08 03:27:27;;;;;;;4.30;2.78;;;16.70;88.00;;;15.59;76.03;100669.28;12341969;23;96932;-87
2023/07/08 03:32:30;;;;;;;3.50;2.25;;;16.70;88.20;;;15.65;75.83;100673.06;12342301;23;97145;-87
2023/07/08 03:37:34;;;;;;;3.67;2.17;;;16.70;88.80;;;15.70;75.88;100676.84;12341026;23;96470;-87
2023/07/08 03:42:38;;;;;;;3.28;2.10;;;16.70;88.40;;;15.78;76.24;100683.97;12341690;23;96588;-87
2023/07/08 03:47:41;;;;;;;2.80;2.08;;;16.80;88.70;;;15.83;77.15;100692.22;12318825;23;96441;-87
2023/07/08 03:52:47;;;;;;;3.40;1.85;;;16.90;89.00;;;15.82;77.13;100687.06;12341986;23;96542;-87
2023/07/08 03:57:51;;;;;;;3.30;2.10;;;16.90;89.20;;;15.88;77.43;100694.34;12344714;23;97630;-87
2023/07/08 04:02:54;;;;;;;3.03;1.75;;;16.90;89.50;;;15.91;77.88;100691.31;12343477;23;96932;-87
2023/07/08 04:07:58;;;;;;;3.60;2.00;;;17.00;89.80;;;16.02;77.81;100690.81;12319897;23;96508;-87
2023/07/08 04:13:02;;;;;;;2.78;1.83;;;17.10;90.00;;;16.15;77.15;100682.88;12344492;23;96439;-87
2023/07/08 04:18:05;;;;;;;2.53;1.70;;;17.20;90.00;;;16.27;78.08;100678.66;12320644;23;96416;-87
2023/07/08 04:23:09;;;;;;;6.57;2.00;;;17.30;90.10;;;16.49;76.69;100692.00;12320966;23;96505;-87
2023/07/08 04:28:12;;;;;;;3.22;1.40;;;17.50;89.80;;;16.62;76.03;100694.81;12342762;23;96872;-87
2023/07/08 04:33:17;;;;;;;3.40;1.60;;;17.60;89.70;;;16.75;76.33;100684.22;12344174;23;96560;-87
2023/07/08 04:38:25;;;;;;;2.35;1.45;;;17.70;90.00;;;16.85;76.11;100687.38;12344285;23;97358;-87
2023/07/08 04:43:29;;;;;;;2.22;1.52;;;17.80;89.90;;;16.94;75.62;100696.09;12367871;23;96583;-87
2023/07/08 04:48:33;;;;;;;2.70;1.80;;;17.90;89.70;;;16.97;75.70;100695.72;12343492;23;96879;-87
2023/07/08 04:53:36;;;;;;;2.20;1.58;;;18.00;89.90;;;16.99;75.31;100696.34;12343874;23;96708;-87
2023/07/08 04:58:40;;;;;;;6.38;2.28;;;18.00;90.00;;;17.06;75.76;100693.69;12341666;23;96503;-87
2023/07/08 05:03:44;;;;;;;4.05;2.03;;;18.00;90.00;;;17.20;75.49;100699.94;12343187;23;96495;-87
2023/07/08 05:08:47;;;;;;;5.00;1.95;;;18.20;90.10;;;17.43;75.90;100692.41;12368390;23;96489;-87
2023/07/08 05:13:51;;;;;;;4.82;2.67;;;18.40;90.20;;;17.67;74.96;100709.84;12346064;23;96897;-87
2023/07/08 05:18:54;;;;;;;3.67;2.33;;;18.60;90.10;;;17.83;74.30;100712.22;12345616;23;96793;-88
2023/07/08 05:24:04;;;;;;;3.22;2.30;;;18.80;89.90;;;17.95;72.60;100720.53;12368838;23;96513;-87
2023/07/08 05:29:07;;;;;;;3.42;1.95;;;18.90;89.10;;;18.03;72.55;100728.38;12343738;23;96664;-89
2023/07/08 05:34:11;;;;;;;6.47;2.70;;;19.00;89.00;;;18.10;72.52;100717.63;12345879;23;96458;-89
2023/07/08 05:39:15;;;;;;;4.80;2.58;;;19.20;88.80;;;18.32;71.66;100718.31;12367120;23;96457;-88
2023/07/08 05:44:18;;;;;;;8.70;2.75;;;19.30;88.70;;;18.55;72.02;100720.59;12359582;23;96587;-89
2023/07/08 05:49:22;;;;;;;4.28;2.33;;;19.60;88.70;;;18.90;71.34;100730.13;12341631;23;96755;-89
2023/07/08 05:54:26;;;;;;;5.47;2.30;;;19.90;88.10;;;19.13;70.42;100729.66;12344582;23;97271;-88
2023/07/08 05:59:30;;;;;;;5.28;2.22;;;20.20;87.80;;;19.38;69.54;100743.28;12342719;23;97034;-88
2023/07/08 06:04:33;;;;;;;3.90;2.30;;;20.40;87.30;;;19.70;68.96;100738.81;12342470;23;96868;-88
2023/07/08 06:09:37;;;;;;;4.03;2.42;;;20.70;86.70;;;19.93;68.68;100723.97;12354293;23;96806;-87
2023/07/08 06:14:41;;;;;;;5.93;1.80;;;21.00;86.60;;;20.29;67.92;100731.41;12318325;23;97081;-88
2023/07/08 06:19:44;;;;;;;4.20;2.17;;;21.30;86.10;;;20.56;67.09;100724.78;12320494;23;96502;-88
2023/07/08 06:24:48;;;;;;;3.75;2.30;;;21.60;85.70;;;20.88;66.20;100735.53;12344634;23;96508;-88
2023/07/08 06:29:53;;;;;;;5.35;2.25;;;21.90;85.30;;;21.19;65.76;100725.66;12343026;23;96686;-88
2023/07/08 06:34:56;;;;;;;2.90;1.98;;;22.10;84.70;;;21.33;63.98;100719.06;12343739;23;96471;-88
2023/07/08 06:40:00;;;;;;;3.40;2.00;;;22.40;83.90;;;21.50;63.85;100714.69;12342500;23;96446;-88
2023/07/08 06:45:04;;;;;;;3.33;1.83;;;22.50;83.60;;;21.71;60.58;100716.09;12343028;23;96724;-88
2023/07/08 06:50:09;;;;;;;7.63;2.50;;;22.70;82.10;;;21.96;59.46;100715.13;12320578;23;96648;-87
2023/07/08 06:55:14;;;;;;;5.50;2.70;;;22.90;80.80;;;22.21;57.78;100715.81;12342587;23;96608;-86
2023/07/08 07:00:18;;;;;;;6.05;1.92;;;23.20;79.30;;;22.47;54.78;100694.78;12319581;23;96555;-88
2023/07/08 07:05:22;;;;;;;4.00;1.70;;;23.50;77.00;;;22.81;53.87;100704.00;12343372;23;96999;-86
2023/07/08 07:10:26;;;;;;;3.13;1.88;;;23.80;76.10;;;23.11;52.78;100691.16;12342842;23;96503;-86
2023/07/08 07:15:31;;;;;;;4.32;1.90;;;24.10;75.20;;;23.39;51.56;100694.94;12344259;23;96529;-88
2023/07/08 07:20:37;;;;;;;2.13;1.60;;;24.30;73.60;;;23.68;51.19;100699.38;12344822;23;96457;-86
2023/07/08 07:25:41;;;;;;;2.75;1.95;;;24.70;72.90;;;23.93;47.35;100687.31;12343069;23;96979;-87
2023/07/08 07:30:46;;;;;;;2.25;1.50;;;25.00;69.60;;;24.19;46.25;100686.72;12365503;23;96553;-86
2023/07/08 07:35:49;;;;;;;2.75;1.38;;;25.20;68.30;;;24.43;44.24;100692.03;12345337;23;97037;-86
2023/07/08 07:40:53;;;;;;;4.82;1.63;;;25.40;67.00;;;24.61;43.38;100683.63;12352824;23;96505;-86
2023/07/08 07:45:57;;;;;;;2.95;1.85;;;25.60;65.20;;;24.83;42.46;100689.09;12351802;23;96385;-85
2023/07/08 07:51:01;;;;;;;2.60;1.60;;;25.80;64.60;;;24.91;44.13;100693.28;12348305;23;96584;-86
2023/07/08 07:56:05;;;;;;;3.83;1.60;;;25.90;64.60;;;25.00;42.19;100686.31;12368255;23;96447;-86
2023/07/08 08:01:09;;;;;;;2.67;1.67;;;26.00;63.40;;;25.08;41.72;100688.66;12345325;23;96567;-86
2023/07/08 08:06:12;;;;;;;3.47;2.05;;;26.10;62.00;;;25.11;41.46;100671.81;12318530;23;96719;-86
2023/07/08 08:11:16;;;;;;;3.65;1.70;;;26.10;61.40;;;25.32;43.07;100668.28;12342926;23;97158;-86
2023/07/08 08:16:21;;;;;;;4.40;1.80;;;26.30;62.60;;;25.54;40.99;100678.31;12344188;23;96524;-86
2023/07/08 08:21:24;;;;;;;4.90;1.50;;;26.50;61.20;;;25.68;40.38;100667.88;12352521;23;96428;-87
2023/07/08 08:26:28;;;;;;;3.97;1.90;;;26.60;60.40;;;25.70;39.13;100671.16;12319339;23;96907;-87
2023/07/08 08:31:32;;;;;;;3.05;1.65;;;26.80;59.30;;;25.80;39.77;100668.56;12342803;23;96508;-86
2023/07/08 08:36:36;;;;;;;3.05;1.85;;;26.80;59.10;;;25.96;39.75;100659.44;12343592;23;96524;-86
2023/07/08 08:41:42;;;;;;;2.55;1.70;;;26.90;59.30;;;26.10;39.07;100659.88;12320106;23;96555;-87
2023/07/08 08:47:21;;;;;;;3.47;1.40;;;27.10;59.10;;;26.22;37.89;100657.78;12370324;23;97537;-86
2023/07/08 08:52:24;;;;;;;3.60;2.00;;;27.20;57.40;;;26.29;38.25;100652.94;12345711;23;96490;-87
2023/07/08 08:57:44;;;;;;;3.65;1.88;;;27.30;57.80;;;26.48;39.07;100656.09;12341340;23;97093;-87
2023/07/08 09:03:13;;;;;;;;;;;27.50;58.40;;;26.70;37.60;100647.78;12340698;23;96633;-86
2023/07/08 09:08:31;;;;;;;2.47;1.58;;;27.60;57.30;;;26.83;36.98;100651.94;12342175;23;96718;-86
2023/07/08 09:13:37;;;;;;;6.43;1.65;;;27.80;57.10;;;26.85;37.43;100634.22;12342699;23;97117;-86
2023/07/08 09:18:48;;;;;;;5.70;1.88;;;27.80;56.60;;;26.95;37.13;100644.38;12343023;23;96521;-86
2023/07/08 09:23:58;;;;;;;2.35;1.60;;;27.90;56.70;;;27.04;37.37;100636.47;12342857;23;96613;-87
2023/07/08 09:29:07;;;;;;;3.55;1.75;;;28.00;56.70;;;27.07;36.59;100636.81;12343879;23;96813;-87
2023/07/08 09:34:23;;;;;;;3.85;2.20;;;28.00;56.40;;;27.20;36.80;100643.69;12341806;23;96683;-87
2023/07/08 09:39:30;;;;;;;4.03;1.70;;;28.20;56.30;;;27.35;36.36;100637.44;12341834;23;97492;-87
2023/07/08 09:44:33;;;;;;;3.70;1.70;;;28.40;56.00;;;27.43;34.81;100643.22;12368414;23;96427;-87
2023/07/08 09:49:37;;;;;;;3.80;1.73;;;28.50;55.10;;;27.38;34.32;100642.38;12341563;23;96420;-87
2023/07/08 09:54:41;;;;;;;4.30;1.80;;;28.40;54.00;;;27.37;33.48;100640.75;12343718;23;96993;-87
2023/07/08 09:59:53;;;;;;;6.45;1.80;;;28.50;53.40;;;27.14;34.02;100636.56;12342360;23;96570;-87
2023/07/08 10:05:07;;;;;;;4.57;1.85;;;28.30;53.10;;;26.95;34.99;100637.00;12350152;23;96868;-87
2023/07/08 10:10:22;;;;;;;3.63;1.70;;;28.10;53.40;;;26.66;34.81;100625.69;12342281;23;96899;-87
2023/07/08 10:15:39;;;;;;;6.68;1.90;;;27.80;53.40;;;26.48;36.31;100630.75;12343628;23;97175;-87
2023/07/08 10:21:07;;;;;;;36.17;6.63;;;27.50;54.40;;;26.54;35.62;100625.06;12343676;23;96482;-87
2023/07/08 10:26:28;;;;;;;65.80;9.43;;;27.50;54.00;;;26.85;35.70;100626.03;12321551;23;96951;-86
2023/07/08 10:31:35;;;;;;;3.58;1.80;;;27.70;54.30;;;27.17;35.48;100614.22;12341505;23;96695;-87
2023/07/08 10:36:48;;;;;;;2.67;1.60;;;28.10;54.30;;;27.51;34.47;100611.84;12342763;23;96847;-88
2023/07/08 10:42:46;;;;;;;3.22;1.50;;;28.40;53.30;;;27.76;34.31;100594.69;12343733;23;96903;-87
2023/07/08 10:48:02;;;;;;;2.95;1.80;;;28.80;53.10;;;28.05;33.65;100589.50;12346853;23;96637;-88
2023/07/08 10:54:03;;;;;;;3.55;1.50;;;29.10;52.50;;;28.24;33.07;100589.75;12343927;23;96513;-87
2023/07/08 10:59:06;;;;;;;6.47;1.90;;;29.30;52.50;;;28.50;33.25;100577.72;12373469;23;97062;-87
2023/07/08 11:05:17;;;;;;;3.40;1.70;;;29.50;51.70;;;28.85;33.83;100586.06;12341400;23;96416;-87
2023/07/08 11:10:40;;;;;;;4.85;2.22;;;29.80;52.30;;;28.97;32.45;100575.66;12322245;23;97262;-86
2023/07/08 11:15:56;;;;;;;3.65;1.70;;;30.10;51.70;;;29.08;30.83;100568.19;12341424;23;96817;-87
2023/07/08 11:21:08;;;;;;;2.50;1.65;;;30.20;50.20;;;28.76;32.04;100569.41;12342359;23;96390;-87
2023/07/08 11:26:37;;;;;;;4.13;1.77;;;29.90;51.00;;;28.47;33.17;100569.25;12343019;23;96478;-88
2023/07/08 11:31:41;;;;;;;2.35;1.63;;;29.50;51.40;;;28.21;33.11;100563.81;12340945;23;97330;-88
2023/07/08 11:36:49;;;;;;;3.67;1.77;;;29.20;51.80;;;28.06;33.07;100565.72;12343316;23;96648;-87
2023/07/08 11:42:04;;;;;;;3.40;1.90;;;29.00;51.90;;;28.23;33.38;100561.59;12341521;23;96567;-87
2023/07/08 11:47:19;;;;;;;3.70;1.70;;;29.10;52.00;;;28.39;32.28;100551.50;12343326;23;96844;-87
2023/07/08 11:52:24;;;;;;;2.72;1.73;;;29.30;50.60;;;28.52;32.17;100526.31;12339699;23;96917;-87
2023/07/08 11:57:41;;;;;;;3.53;1.83;;;29.50;50.90;;;28.61;31.59;100525.72;12340794;23;96575;-87
2023/07/08 12:03:03;;;;;;;4.20;1.98;;;29.60;50.20;;;28.86;31.60;100524.81;12341790;23;96535;-90
2023/07/08 12:08:19;;;;;;;3.28;1.98;;;29.90;50.20;;;28.85;31.35;100523.16;12340738;23;96490;-88
2023/07/08 12:13:24;;;;;;;3.22;1.80;;;30.10;49.60;;;28.99;31.60;100526.94;12319449;23;96562;-87
2023/07/08 12:18:36;;;;;;;2.20;1.40;;;30.20;49.60;;;29.32;31.27;100522.63;12342075;23;96512;-88
2023/07/08 12:23:47;;;;;;;3.40;1.92;;;30.70;49.40;;;29.72;30.84;100523.44;12342366;23;96465;-88
2023/07/08 12:28:51;;;;;;;2.95;1.58;;;31.20;48.70;;;29.99;29.66;100506.44;12343835;23;96836;-88
2023/07/08 12:33:55;;;;;;;4.00;1.63;;;31.80;47.90;;;30.21;29.46;100511.47;12342739;23;96893;-88
2023/07/08 12:39:00;;;;;;;3.42;1.40;;;32.20;47.30;;;30.59;29.50;100504.19;12345725;23;96998;-88
2023/07/08 12:44:16;;;;;;;2.97;1.73;;;32.80;47.60;;;31.10;28.05;100506.22;12342724;23;97067;-88
2023/07/08 12:49:21;;;;;;;2.95;1.88;;;33.30;46.20;;;31.50;26.85;100493.84;12343829;23;97804;-88
2023/07/08 12:54:28;;;;;;;3.08;1.65;;;33.30;45.00;;;31.88;27.26;100493.75;12344337;23;96475;-88
2023/07/08 12:59:32;;;;;;;2.63;1.50;;;33.50;45.40;;;32.13;27.31;100482.25;12367200;23;96506;-88
2023/07/08 13:04:38;;;;;;;2.75;1.50;;;33.70;45.40;;;32.26;27.41;100483.38;12343750;23;96818;-88
2023/07/08 13:09:46;;;;;;;3.28;1.60;;;33.80;45.50;;;32.36;26.37;100487.91;12343789;23;96743;-88
2023/07/08 13:14:57;;;;;;;4.18;1.75;;;34.00;44.90;;;32.30;26.85;100475.34;12321325;23;96876;-88
2023/07/08 13:20:00;;;;;;;5.78;2.00;;;34.20;44.80;;;32.21;26.46;100470.56;12345093;23;96466;-88
2023/07/08 13:25:16;;;;;;;2.63;1.15;;;34.40;44.50;;;32.19;25.87;100461.78;12343170;23;96598;-88
2023/07/08 13:30:26;;;;;;;3.75;1.30;;;34.60;43.50;;;32.44;27.25;100473.41;12344076;23;96624;-88
2023/07/08 13:35:42;;;;;;;2.95;1.50;;;34.70;44.50;;;32.87;26.63;100476.63;12346386;23;96398;-88
2023/07/08 13:41:00;;;;;;;1.63;1.20;;;34.80;44.80;;;33.46;25.04;100484.88;12347686;23;98519;-87
2023/07/08 13:46:05;;;;;;;4.57;1.65;;;34.90;44.20;;;33.70;25.52;100470.75;12343546;23;96942;-87
2023/07/08 13:51:18;;;;;;;2.50;1.63;;;34.70;43.90;;;33.37;24.23;100478.47;12321077;23;96449;-88
2023/07/08 13:56:33;;;;;;;3.13;1.42;;;34.40;43.40;;;33.33;24.75;100474.72;12344035;23;97380;-87
2023/07/08 14:01:41;;;;;;;4.05;1.60;;;34.10;43.70;;;33.01;24.07;100465.56;12342895;23;96799;-87
2023/07/08 14:06:45;;;;;;;3.25;1.90;;;33.90;42.90;;;32.81;25.81;100461.34;12343214;23;96515;-88
2023/07/08 14:11:51;;;;;;;5.00;1.80;;;33.70;44.20;;;32.61;25.63;100461.78;12344305;23;96428;-87
2023/07/08 14:16:55;;;;;;;3.45;1.80;;;33.50;43.90;;;32.41;25.74;100463.84;12340745;23;96981;-87
2023/07/08 14:22:15;;;;;;;2.90;1.60;;;33.40;44.10;;;31.98;25.94;100463.31;12320252;23;96487;-87
2023/07/08 14:27:20;;;;;;;1.98;1.58;;;33.10;43.90;;;31.65;26.44;100468.00;12343993;23;96398;-87
2023/07/08 14:32:29;;;;;;;2.03;1.40;;;32.80;44.00;;;31.55;26.17;100462.69;12341762;23;97114;-87
2023/07/08 14:37:32;;;;;;;2.40;1.33;;;32.80;43.90;;;31.73;27.69;100461.00;12342550;23;96490;-87
2023/07/08 14:42:36;;;;;;;4.22;1.80;;;33.00;44.50;;;31.86;26.84;100458.31;12320347;23;97523;-88
2023/07/08 14:47:40;;;;;;;3.53;1.77;;;33.30;44.20;;;32.11;27.08;100453.44;12341643;23;96722;-87
2023/07/08 14:52:44;;;;;;;4.45;1.92;;;33.70;44.30;;;32.32;27.76;100459.34;12319827;23;96996;-90
2023/07/08 14:57:48;;;;;;;3.42;1.63;;;34.20;44.40;;;32.79;27.25;100455.31;12343831;23;96767;-90
2023/07/08 15:02:52;;;;;;;2.45;1.40;;;34.80;44.30;;;33.23;26.00;100442.75;12343652;23;96637;-90
2023/07/08 15:07:58;;;;;;;5.22;1.40;;;35.20;43.70;;;33.51;25.25;100440.69;12342346;23;96519;-89
2023/07/08 15:13:05;;;;;;;3.45;1.65;;;35.30;43.00;;;33.68;24.87;100438.00;12342927;23;96815;-89
2023/07/08 15:18:17;;;;;;;4.15;1.70;;;35.40;43.00;;;33.66;24.70;100434.78;12342216;23;96507;-89
2023/07/08 15:23:20;;;;;;;3.17;1.48;;;35.30;42.60;;;33.65;24.47;100435.91;12341970;23;96695;-87
2023/07/08 15:28:49;;;;;;;3.47;1.50;;;35.20;42.60;;;33.64;24.56;100439.78;12366504;23;96933;-87
2023/07/08 15:33:53;;;;;;;4.18;1.70;;;35.20;42.10;;;33.52;24.62;100428.53;12365615;23;96578;-87
2023/07/08 15:38:57;;;;;;;4.22;1.80;;;35.20;42.40;;;33.48;24.77;100413.78;12319526;23;96599;-87
2023/07/08 15:44:01;;;;;;;2.60;1.70;;;35.30;42.30;;;33.53;24.13;100406.19;12342120;23;96579;-87
2023/07/08 15:49:22;;;;;;;1.77;1.33;;;35.50;41.90;;;33.82;25.26;100404.84;12341610;23;96595;-87
2023/07/08 15:54:26;;;;;;;2.30;1.65;;;35.70;42.60;;;34.13;23.48;100399.31;12346169;23;97520;-87
2023/07/08 15:59:30;;;;;;;2.60;1.60;;;36.10;41.70;;;33.88;24.64;100405.50;12320621;23;96515;-88
2023/07/08 16:04:37;;;;;;;3.00;1.70;;;35.70;41.70;;;33.67;24.14;100405.28;12320948;23;96785;-88
2023/07/08 16:09:41;;;;;;;2.65;1.45;;;35.60;41.60;;;33.53;24.94;100405.38;12321684;23;97552;-87
2023/07/08 16:14:45;;;;;;;3.45;1.70;;;35.30;41.70;;;33.45;24.65;100403.38;12344610;23;96566;-87
2023/07/08 16:19:49;;;;;;;3.90;1.90;;;35.10;42.10;;;32.97;25.93;100418.56;12344097;23;97181;-88
2023/07/08 16:24:52;;;;;;;3.15;1.52;;;34.40;42.80;;;32.74;28.19;100408.66;12344374;23;96802;-87
2023/07/08 16:29:56;;;;;;;4.15;1.50;;;34.00;45.30;;;32.33;26.73;100400.47;12344450;23;96904;-87
2023/07/08 16:34:59;;;;;;;3.80;1.60;;;33.50;44.20;;;31.69;27.07;100403.94;12343593;23;96692;-86
2023/07/08 16:40:08;;;;;;;3.78;1.58;;;32.90;44.20;;;31.16;27.98;100403.47;12343670;23;96818;-87
2023/07/08 16:45:16;;;;;;;2.58;1.30;;;32.30;44.60;;;30.84;29.43;100401.53;12322218;23;96376;-86
2023/07/08 16:50:25;;;;;;;2.57;1.60;;;32.00;46.10;;;30.47;30.41;100407.78;12343907;23;96637;-86
2023/07/08 16:55:31;;;;;;;5.18;1.80;;;31.60;46.80;;;30.36;30.40;100407.13;12344989;23;96587;-87
2023/07/08 17:00:34;;;;;;;3.95;1.55;;;31.60;46.80;;;30.20;31.04;100412.00;12342287;23;96764;-86
2023/07/08 17:05:38;;;;;;;2.88;1.42;;;31.40;47.00;;;29.91;30.13;100403.81;12320493;23;96643;-86
2023/07/08 17:10:43;;;;;;;3.05;1.20;;;31.20;46.60;;;29.64;31.34;100395.34;12344612;23;96548;-87
2023/07/08 17:15:47;;;;;;;3.13;1.40;;;30.80;47.30;;;29.44;33.01;100405.34;12368056;23;96973;-87
2023/07/08 17:20:52;;;;;;;4.28;1.77;;;30.60;48.30;;;29.15;32.74;100401.78;12322357;23;97360;-88
2023/07/08 17:25:56;;;;;;;2.95;1.42;;;30.20;48.50;;;28.85;31.77;100397.34;12345384;23;96428;-88
2023/07/08 17:31:01;;;;;;;3.45;1.70;;;30.00;47.90;;;28.61;33.80;100416.34;12342992;23;96410;-88
2023/07/08 17:36:11;;;;;;;5.53;1.77;;;29.70;48.80;;;28.23;35.28;100419.53;12343111;23;96646;-87
2023/07/08 17:41:18;;;;;;;2.97;1.40;;;29.30;50.00;;;27.81;36.74;100413.66;12342366;23;96490;-87
2023/07/08 17:46:28;;;;;;;4.75;1.60;;;28.80;51.60;;;27.38;38.20;100413.16;12343230;23;96493;-87
2023/07/08 17:51:34;;;;;;;8.13;1.67;;;28.40;53.00;;;27.06;39.04;100429.81;12350224;23;96337;-87
2023/07/08 17:56:44;;;;;;;5.75;1.90;;;28.00;53.60;;;26.79;40.47;100428.09;12320932;23;96784;-87
2023/07/08 18:01:48;;;;;;;2.92;1.83;;;27.80;54.40;;;26.47;41.21;100425.56;12340268;23;96885;-87
2023/07/08 18:06:52;;;;;;;4.43;1.83;;;27.50;55.00;;;26.27;41.52;100425.44;12340756;23;96678;-87
2023/07/08 18:11:56;;;;;;;5.30;2.20;;;27.30;55.70;;;26.03;41.93;100435.94;12341720;23;96914;-87
2023/07/08 18:17:00;;;;;;;2.97;1.55;;;27.10;55.90;;;25.67;43.16;100440.31;12342444;23;96456;-87
2023/07/08 18:22:04;;;;;;;2.70;1.77;;;26.70;56.60;;;25.38;43.54;100434.41;12339647;23;96589;-87
2023/07/08 18:27:13;;;;;;;3.45;1.80;;;26.40;57.10;;;25.08;44.23;100435.78;12342866;23;96823;-87
2023/07/08 18:32:16;;;;;;;2.30;1.70;;;26.10;57.70;;;24.78;44.91;100428.94;12341903;23;96530;-87
2023/07/08 18:37:20;;;;;;;4.25;1.90;;;25.70;58.30;;;24.59;46.18;100437.69;12319748;23;96473;-87
2023/07/08 18:42:23;;;;;;;4.82;2.17;;;25.50;59.20;;;24.34;47.62;100446.31;12341577;23;97003;-90
2023/07/08 18:47:27;;;;;;;3.75;2.47;;;25.20;60.50;;;24.10;48.42;100449.28;12319482;23;97113;-89
2023/07/08 18:52:30;;;;;;;5.38;2.40;;;24.90;61.30;;;23.90;48.25;100452.53;12341786;23;96820;-90
2023/07/08 18:57:34;;;;;;;3.90;2.08;;;24.80;61.50;;;23.79;47.76;100452.63;12319577;23;96539;-91
2023/07/08 19:02:58;;;;;;;3.28;2.15;;;24.60;61.50;;;23.64;49.37;100456.78;12366198;23;96516;-91
2023/07/08 19:08:03;;;;;;;3.53;2.50;;;24.50;62.20;;;23.50;50.07;100471.69;12319185;23;96776;-91
2023/07/08 19:13:25;;;;;;;2.22;1.67;;;24.30;62.80;;;23.31;52.26;100475.72;12342900;23;97139;-90
2023/07/08 19:18:28;;;;;;;3.17;2.05;;;24.10;64.80;;;23.09;52.78;100479.16;12342710;23;96654;-91
2023/07/08 19:23:32;;;;;;;3.83;1.90;;;23.90;65.00;;;22.96;52.98;100482.94;12319055;23;97243;-90
2023/07/08 19:28:35;;;;;;;3.63;2.08;;;23.80;65.40;;;22.82;52.88;100487.00;12339695;23;96473;-91
2023/07/08 19:33:39;;;;;;;2.95;2.25;;;23.60;65.60;;;22.73;52.61;100495.72;12339397;23;97082;-91
2023/07/08 19:38:42;;;;;;;3.00;1.88;;;23.60;65.70;;;22.66;52.67;100491.28;12341097;23;96446;-91
2023/07/08 19:43:45;;;;;;;3.35;1.98;;;23.50;65.60;;;22.57;52.47;100490.03;12340660;23;96903;-91
2023/07/08 19:48:49;;;;;;;3.00;1.83;;;23.40;65.70;;;22.53;52.29;100502.38;12317712;23;96570;-91
2023/07/08 19:53:53;;;;;;;2.78;2.05;;;23.40;65.80;;;22.45;52.99;100500.06;12339682;23;96751;-91
2023/07/08 19:58:56;;;;;;;3.53;2.30;;;23.30;66.10;;;22.38;53.29;100500.19;12342989;23;96804;-91
2023/07/08 20:04:00;;;;;;;7.40;1.83;;;23.30;66.40;;;22.26;52.51;100502.09;12342268;23;96855;-91
2023/07/08 20:09:04;;;;;;;3.67;1.95;;;23.20;66.00;;;22.10;52.23;100503.63;12341181;23;96629;-90
2023/07/08 20:14:07;;;;;;;2.95;1.73;;;23.10;66.00;;;21.99;52.50;100501.72;12341485;23;96514;-91
2023/07/08 20:19:21;;;;;;;7.85;3.35;;;22.90;66.20;;;21.88;53.60;100510.66;12338526;23;96871;-91
2023/07/08 20:24:25;;;;;;;4.45;3.30;;;22.80;66.80;;;21.79;54.31;100514.78;12339665;23;96813;-91
2023/07/08 20:29:29;;;;;;;4.70;3.22;;;22.70;67.10;;;21.65;54.51;100519.56;12339046;23;96860;-90
2023/07/08 20:34:32;;;;;;;20.65;11.65;;;22.60;67.70;;;21.38;56.56;100511.88;12317154;23;96623;-91
2023/07/08 20:39:36;;;;;;;12.35;8.07;;;22.30;68.50;;;21.14;57.15;100510.13;12366742;23;96504;-91
2023/07/08 20:44:39;;;;;;;8.18;4.90;;;22.10;69.10;;;21.04;57.85;100526.88;12321075;23;96487;-91
2023/07/08 20:49:45;;;;;;;5.47;3.58;;;21.90;69.60;;;20.88;58.01;100524.81;12343599;23;96642;-90
2023/07/08 20:54:49;;;;;;;5.32;2.78;;;21.80;70.10;;;20.70;58.42;100517.56;12343719;23;97068;-91
2023/07/08 20:59:53;;;;;;;4.28;2.20;;;21.60;70.20;;;20.69;58.42;100539.38;12322351;23;96343;-91
2023/07/08 21:04:58;;;;;;;5.57;3.05;;;21.50;70.30;;;20.63;59.09;100535.75;12349754;23;96529;-91
2023/07/08 21:10:01;;;;;;;5.40;2.33;;;21.50;70.80;;;20.53;59.31;100528.16;12364277;23;96949;-91